Airfield :







YOU CAN JOIN US ON...

 
LOGIN :

Register | Disclaimer

   EN    FR    IT 

 









Legend :    VFR   Marginal VFR   IFR   Intensive IFR   Very Intensive IFR
Visi :
Ceiling :
>= 8 km
>= 3000ft
5 to 8 km
1000 to 3000 ft
1500m to 5 km
500 to 1000 ft
800 to 1500m
200 to 500 ft
< 800m
< 200 ft
Symbols :   Thunderstorms  Fog  Heavy snow  Heavy precipitations  Wind > 20 kt






- Airport Elevation : 23 ft
- IATA code : STT


TIST - King

CURRENT METAR :
  • 281053Z AUTO 08006KT 10SM CLR 23/21 A3004 RMK AO2 SLP173 T02330206

EXPIRED METARs :
  • 280953Z AUTO 09004KT 10SM CLR 23/21 A3002 RMK AO2 SLP167 T02330206
  • 280853Z AUTO 10004KT 10SM CLR 23/21 A3001 RMK AO2 SLP161 60000 T02330211 55010

TAF TIST
Valid from the 28 at 06:00 until the 29 at 06:00 UTC


280520Z 2806/2906 07009KT P6SM VCSH SCT025
FM281400 12012KT P6SM FEW025 SCT035
FM282200 07010KT P6SM FEW025



MET'MAP, your aeronautical weather chart ! - Copyright ORBIFLY December 2007 - Disclaimer

ORBIFLY MET'MAP TEAM :

Programming & Development : Alexandra Zaïnal
Concept & original design : Baudouin d'Aumeries
Assistance for programming : Marc-Olivier Méhu
Technical & hardware support : Manuel Goepfert

Contact : metmap@orbifly.com




SOURCES & CREDITS :

   NOAA